sensor_id;sensor_type;location;lat;lon;timestamp;pressure;altitude;pressure_sealevel;temperature;humidity
45621;BME280;31345;51.522;10.702;2024-01-15T00:01:42;97272.31;;;1.68;99.68
45621;BME280;31345;51.522;10.702;2024-01-15T00:04:15;97262.38;;;1.76;99.46
45621;BME280;31345;51.522;10.702;2024-01-15T00:06:49;97266.69;;;1.75;99.79
45621;BME280;31345;51.522;10.702;2024-01-15T00:09:17;97263.09;;;1.64;100.00
45621;BME280;31345;51.522;10.702;2024-01-15T00:11:49;97252.53;;;1.68;100.00
45621;BME280;31345;51.522;10.702;2024-01-15T00:14:22;97264.19;;;1.74;100.00
45621;BME280;31345;51.522;10.702;2024-01-15T00:16:50;97249.75;;;1.71;99.75
45621;BME280;31345;51.522;10.702;2024-01-15T00:19:21;97257.94;;;1.64;100.00
45621;BME280;31345;51.522;10.702;2024-01-15T00:21:56;97252.81;;;1.64;100.00
45621;BME280;31345;51.522;10.702;2024-01-15T00:24:29;97252.81;;;1.64;100.00
45621;BME280;31345;51.522;10.702;2024-01-15T00:27:01;97256.56;;;1.58;100.00
45621;BME280;31345;51.522;10.702;2024-01-15T00:29:34;97247.75;;;1.62;100.00
45621;BME280;31345;51.522;10.702;2024-01-15T00:32:06;97244.16;;;1.65;100.00
45621;BME280;31345;51.522;10.702;2024-01-15T00:34:39;97245.25;;;1.60;100.00
45621;BME280;31345;51.522;10.702;2024-01-15T00:37:13;97244.41;;;1.60;100.00
45621;BME280;31345;51.522;10.702;2024-01-15T00:39:44;97241.03;;;1.59;100.00
45621;BME280;31345;51.522;10.702;2024-01-15T00:42:16;97237.91;;;1.54;100.00
45621;BME280;31345;51.522;10.702;2024-01-15T00:44:49;97232.63;;;1.56;100.00
45621;BME280;31345;51.522;10.702;2024-01-15T00:47:21;97237.69;;;1.57;99.96
45621;BME280;31345;51.522;10.702;2024-01-15T00:49:49;97241.56;;;1.50;100.00
45621;BME280;31345;51.522;10.702;2024-01-15T00:52:22;97243.41;;;1.48;100.00
45621;BME280;31345;51.522;10.702;2024-01-15T00:54:50;97241.09;;;1.43;100.00
45621;BME280;31345;51.522;10.702;2024-01-15T00:57:22;97233.84;;;1.50;100.00
45621;BME280;31345;51.522;10.702;2024-01-15T00:59:58;97241.03;;;1.59;100.00
45621;BME280;31345;51.522;10.702;2024-01-15T01:02:28;97233.00;;;1.49;100.00
45621;BME280;31345;51.522;10.702;2024-01-15T01:04:55;97235.31;;;1.54;100.00
45621;BME280;31345;51.522;10.702;2024-01-15T01:07:31;97228.69;;;1.50;100.00
45621;BME280;31345;51.522;10.702;2024-01-15T01:09:58;97229.59;;;1.49;100.00
45621;BME280;31345;51.522;10.702;2024-01-15T01:12:31;97229.59;;;1.49;100.00
45621;BME280;31345;51.522;10.702;2024-01-15T01:15:05;97234.00;;;1.32;100.00
45621;BME280;31345;51.522;10.702;2024-01-15T01:17:32;97218.28;;;1.37;100.00
45621;BME280;31345;51.522;10.702;2024-01-15T01:20:05;97229.09;;;1.28;100.00
45621;BME280;31345;51.522;10.702;2024-01-15T01:22:41;97230.06;;;1.41;100.00
45621;BME280;31345;51.522;10.702;2024-01-15T01:25:13;97227.66;;;1.38;100.00
45621;BME280;31345;51.522;10.702;2024-01-15T01:27:46;97222.69;;;1.35;100.00
45621;BME280;31345;51.522;10.702;2024-01-15T01:30:18;97225.53;;;1.45;100.00
45621;BME280;31345;51.522;10.702;2024-01-15T01:32:54;97229.41;;;1.52;100.00
45621;BME280;31345;51.522;10.702;2024-01-15T01:35:22;97229.59;;;1.49;100.00
45621;BME280;31345;51.522;10.702;2024-01-15T01:37:55;97225.72;;;1.42;100.00
45621;BME280;31345;51.522;10.702;2024-01-15T01:40:28;97232.72;;;1.40;100.00
45621;BME280;31345;51.522;10.702;2024-01-15T01:43:02;97234.00;;;1.32;100.00
45621;BME280;31345;51.522;10.702;2024-01-15T01:45:35;97226.09;;;1.35;100.00
45621;BME280;31345;51.522;10.702;2024-01-15T01:48:03;97222.13;;;1.30;100.00
45621;BME280;31345;51.522;10.702;2024-01-15T01:50:31;97220.66;;;1.26;100.00
45621;BME280;31345;51.522;10.702;2024-01-15T01:53:01;97217.72;;;1.32;100.00
45621;BME280;31345;51.522;10.702;2024-01-15T01:55:36;97209.25;;;1.30;100.00
45621;BME280;31345;51.522;10.702;2024-01-15T01:58:10;97218.72;;;1.29;100.00
45621;BME280;31345;51.522;10.702;2024-01-15T02:00:40;97216.81;;;1.33;100.00
45621;BME280;31345;51.522;10.702;2024-01-15T02:03:11;97214.50;;;1.28;100.00
45621;BME280;31345;51.522;10.702;2024-01-15T02:05:39;97221.06;;;1.18;100.00
45621;BME280;31345;51.522;10.702;2024-01-15T02:08:13;97217.25;;;1.25;100.00
45621;BME280;31345;51.522;10.702;2024-01-15T02:10:46;97214.66;;;1.10;100.00
45621;BME280;31345;51.522;10.702;2024-01-15T02:13:20;97198.59;;;1.21;100.00
45621;BME280;31345;51.522;10.702;2024-01-15T02:15:53;97207.22;;;1.20;100.00
45621;BME280;31345;51.522;10.702;2024-01-15T02:18:25;97205.28;;;1.24;100.00
45621;BME280;31345;51.522;10.702;2024-01-15T02:20:58;97208.78;;;1.23;100.00
45621;BME280;31345;51.522;10.702;2024-01-15T02:23:31;97203.56;;;1.25;100.00
45621;BME280;31345;51.522;10.702;2024-01-15T02:25:59;97211.16;;;1.12;100.00
45621;BME280;31345;51.522;10.702;2024-01-15T02:28:32;97215.75;;;1.21;100.00
45621;BME280;31345;51.522;10.702;2024-01-15T02:31:05;97204.75;;;1.19;100.00
45621;BME280;31345;51.522;10.702;2024-01-15T02:33:34;97200.69;;;1.15;100.00
45621;BME280;31345;51.522;10.702;2024-01-15T02:36:07;97210.69;;;1.19;100.00
45621;BME280;31345;51.522;10.702;2024-01-15T02:38:41;97201.03;;;1.08;100.00
45621;BME280;31345;51.522;10.702;2024-01-15T02:41:15;97199.75;;;1.16;100.00
45621;BME280;31345;51.522;10.702;2024-01-15T02:43:50;97207.50;;;1.16;100.00
45621;BME280;31345;51.522;10.702;2024-01-15T02:46:23;97194.78;;;1.13;100.00
45621;BME280;31345;51.522;10.702;2024-01-15T02:48:58;97205.16;;;1.11;100.00
45621;BME280;31345;51.522;10.702;2024-01-15T02:51:30;97196.44;;;1.14;100.00
45621;BME280;31345;51.522;10.702;2024-01-15T02:53:59;97207.50;;;1.16;100.00
45621;BME280;31345;51.522;10.702;2024-01-15T02:56:32;97208.75;;;1.08;100.00
45621;BME280;31345;51.522;10.702;2024-01-15T02:59:04;97204.22;;;0.97;100.00
45621;BME280;31345;51.522;10.702;2024-01-15T03:01:37;97200.25;;;0.92;100.00
45621;BME280;31345;51.522;10.702;2024-01-15T03:04:04;97203.56;;;0.94;100.00
45621;BME280;31345;51.522;10.702;2024-01-15T03:06:36;97201.09;;;0.92;100.00
45621;BME280;31345;51.522;10.702;2024-01-15T03:09:05;97191.22;;;0.84;100.00
45621;BME280;31345;51.522;10.702;2024-01-15T03:11:38;97204.06;;;1.01;100.00
45621;BME280;31345;51.522;10.702;2024-01-15T03:14:11;97198.13;;;1.15;100.00
45621;BME280;31345;51.522;10.702;2024-01-15T03:16:43;97201.50;;;1.15;100.00
45621;BME280;31345;51.522;10.702;2024-01-15T03:19:11;97196.56;;;1.12;100.00
45621;BME280;31345;51.522;10.702;2024-01-15T03:21:43;97199.94;;;1.13;100.00
45621;BME280;31345;51.522;10.702;2024-01-15T03:24:12;97202.88;;;1.21;100.00
45621;BME280;31345;51.522;10.702;2024-01-15T03:26:45;97215.03;;;1.19;100.00
45621;BME280;31345;51.522;10.702;2024-01-15T03:29:17;97212.66;;;1.30;100.00
45621;BME280;31345;51.522;10.702;2024-01-15T03:31:49;97219.72;;;1.27;100.00
45621;BME280;31345;51.522;10.702;2024-01-15T03:34:22;97213.28;;;1.19;100.00
45621;BME280;31345;51.522;10.702;2024-01-15T03:36:54;97212.25;;;1.22;99.14
45621;BME280;31345;51.522;10.702;2024-01-15T03:39:28;97213.09;;;1.22;98.83
45621;BME280;31345;51.522;10.702;2024-01-15T03:42:01;97212.47;;;1.33;97.87
45621;BME280;31345;51.522;10.702;2024-01-15T03:44:29;97206.44;;;1.34;97.76
45621;BME280;31345;51.522;10.702;2024-01-15T03:47:01;97199.41;;;1.36;97.86
45621;BME280;31345;51.522;10.702;2024-01-15T03:49:34;97193.91;;;1.28;96.93
45621;BME280;31345;51.522;10.702;2024-01-15T03:52:06;97196.47;;;1.28;96.83
45621;BME280;31345;51.522;10.702;2024-01-15T03:54:40;97205.59;;;1.34;96.66
45621;BME280;31345;51.522;10.702;2024-01-15T03:57:12;97201.63;;;1.28;96.81
45621;BME280;31345;51.522;10.702;2024-01-15T03:59:45;97197.47;;;1.26;96.99
45621;BME280;31345;51.522;10.702;2024-01-15T04:02:18;97196.28;;;1.31;96.21
45621;BME280;31345;51.522;10.702;2024-01-15T04:04:46;97202.75;;;1.39;95.93
45621;BME280;31345;51.522;10.702;2024-01-15T04:07:18;97198.03;;;1.31;95.50
45621;BME280;31345;51.522;10.702;2024-01-15T04:09:47;97191.59;;;1.23;95.25
45621;BME280;31345;51.522;10.702;2024-01-15T04:12:14;97197.78;;;1.35;94.90
45621;BME280;31345;51.522;10.702;2024-01-15T04:14:47;97190.78;;;1.23;95.83
45621;BME280;31345;51.522;10.702;2024-01-15T04:17:19;97184.53;;;1.27;95.49
45621;BME280;31345;51.522;10.702;2024-01-15T04:19:52;97196.94;;;1.35;95.48
45621;BME280;31345;51.522;10.702;2024-01-15T04:22:25;97187.91;;;1.28;95.71
45621;BME280;31345;51.522;10.702;2024-01-15T04:24:59;97185.25;;;1.29;95.78
45621;BME280;31345;51.522;10.702;2024-01-15T04:27:31;97187.66;;;1.32;95.43
45621;BME280;31345;51.522;10.702;2024-01-15T04:30:05;97185.72;;;1.36;95.51
45621;BME280;31345;51.522;10.702;2024-01-15T04:32:32;97195.38;;;1.32;97.67
45621;BME280;31345;51.522;10.702;2024-01-15T04:35:05;97188.75;;;1.28;99.42
45621;BME280;31345;51.522;10.702;2024-01-15T04:37:39;97173.84;;;1.19;100.00
45621;BME280;31345;51.522;10.702;2024-01-15T04:40:13;97180.81;;;1.17;100.00
45621;BME280;31345;51.522;10.702;2024-01-15T04:42:45;97175.13;;;1.12;100.00
45621;BME280;31345;51.522;10.702;2024-01-15T04:45:13;97179.28;;;1.29;100.00
45621;BME280;31345;51.522;10.702;2024-01-15T04:47:46;97186.25;;;1.27;99.63
45621;BME280;31345;51.522;10.702;2024-01-15T04:50:19;97191.13;;;1.17;100.00
45621;BME280;31345;51.522;10.702;2024-01-15T04:52:51;97193.34;;;1.23;100.00
45621;BME280;31345;51.522;10.702;2024-01-15T04:55:25;97189.66;;;1.27;100.00
45621;BME280;31345;51.522;10.702;2024-01-15T04:57:57;97196.09;;;1.20;100.00
45621;BME280;31345;51.522;10.702;2024-01-15T05:00:25;97197.91;;;1.18;100.00
45621;BME280;31345;51.522;10.702;2024-01-15T05:02:57;97200.16;;;1.24;99.99
45621;BME280;31345;51.522;10.702;2024-01-15T05:05:30;97200.69;;;1.29;100.00
45621;BME280;31345;51.522;10.702;2024-01-15T05:08:03;97187.28;;;1.24;98.87
45621;BME280;31345;51.522;10.702;2024-01-15T05:10:37;97180.47;;;1.23;99.33
45621;BME280;31345;51.522;10.702;2024-01-15T05:13:09;97179.56;;;1.24;98.59
45621;BME280;31345;51.522;10.702;2024-01-15T05:15:42;97184.34;;;1.30;98.22
45621;BME280;31345;51.522;10.702;2024-01-15T05:18:15;97179.84;;;1.34;97.87
45621;BME280;31345;51.522;10.702;2024-01-15T05:20:43;97174.69;;;1.34;97.97
45621;BME280;31345;51.522;10.702;2024-01-15T05:23:15;97174.88;;;1.45;97.30
45621;BME280;31345;51.522;10.702;2024-01-15T05:25:44;97161.91;;;1.32;97.15
45621;BME280;31345;51.522;10.702;2024-01-15T05:28:11;97171.81;;;1.24;99.46
45621;BME280;31345;51.522;10.702;2024-01-15T05:30:44;97190.91;;;1.05;100.00
45621;BME280;31345;51.522;10.702;2024-01-15T05:33:12;97182.03;;;0.80;100.00
45621;BME280;31345;51.522;10.702;2024-01-15T05:35:45;97184.84;;;0.76;100.00
45621;BME280;31345;51.522;10.702;2024-01-15T05:38:13;97176.72;;;0.83;100.00
45621;BME280;31345;51.522;10.702;2024-01-15T05:40:40;97182.41;;;0.89;100.00
45621;BME280;31345;51.522;10.702;2024-01-15T05:43:09;97168.50;;;1.07;100.00
45621;BME280;31345;51.522;10.702;2024-01-15T05:45:38;97187.06;;;1.13;100.00
45621;BME280;31345;51.522;10.702;2024-01-15T05:48:10;97179.34;;;1.13;100.00
45621;BME280;31345;51.522;10.702;2024-01-15T05:50:38;97176.97;;;1.24;100.00
45621;BME280;31345;51.522;10.702;2024-01-15T05:53:10;97170.63;;;1.30;100.00
45621;BME280;31345;51.522;10.702;2024-01-15T05:55:38;97173.84;;;1.33;100.00
45621;BME280;31345;51.522;10.702;2024-01-15T05:58:12;97171.19;;;1.35;100.00
45621;BME280;31345;51.522;10.702;2024-01-15T06:00:39;97165.84;;;1.23;100.00
45621;BME280;31345;51.522;10.702;2024-01-15T06:03:07;97167.97;;;1.31;100.00
45621;BME280;31345;51.522;10.702;2024-01-15T06:05:34;97163.94;;;1.27;100.00
45621;BME280;31345;51.522;10.702;2024-01-15T06:08:07;97159.50;;;1.29;100.00
45621;BME280;31345;51.522;10.702;2024-01-15T06:10:39;97164.00;;;1.26;100.00
45621;BME280;31345;51.522;10.702;2024-01-15T06:13:13;97162.91;;;1.30;100.00
45621;BME280;31345;51.522;10.702;2024-01-15T06:15:46;97159.25;;;1.34;100.00
45621;BME280;31345;51.522;10.702;2024-01-15T06:18:18;97160.88;;;1.35;100.00
45621;BME280;31345;51.522;10.702;2024-01-15T06:20:51;97165.94;;;1.36;100.00
45621;BME280;31345;51.522;10.702;2024-01-15T06:23:23;97170.09;;;1.39;99.87
45621;BME280;31345;51.522;10.702;2024-01-15T06:25:51;97177.16;;;1.35;100.00
45621;BME280;31345;51.522;10.702;2024-01-15T06:28:25;97164.66;;;1.29;99.92
45621;BME280;31345;51.522;10.702;2024-01-15T06:30:53;97162.81;;;1.31;100.00
45621;BME280;31345;51.522;10.702;2024-01-15T06:33:20;97179.19;;;1.30;100.00
45621;BME280;31345;51.522;10.702;2024-01-15T06:35:53;97179.38;;;1.27;100.00
45621;BME280;31345;51.522;10.702;2024-01-15T06:38:20;97176.72;;;1.29;100.00
45621;BME280;31345;51.522;10.702;2024-01-15T06:40:49;97170.38;;;1.34;100.00
45621;BME280;31345;51.522;10.702;2024-01-15T06:43:17;97178.66;;;1.40;100.00
45621;BME280;31345;51.522;10.702;2024-01-15T06:45:46;97180.94;;;1.30;100.00
45621;BME280;31345;51.522;10.702;2024-01-15T06:48:19;97181.78;;;1.30;100.00
45621;BME280;31345;51.522;10.702;2024-01-15T06:50:46;97191.59;;;1.23;100.00
45621;BME280;31345;51.522;10.702;2024-01-15T06:53:19;97175.97;;;1.12;100.00
45621;BME280;31345;51.522;10.702;2024-01-15T06:55:52;97180.28;;;1.12;100.00
45621;BME280;31345;51.522;10.702;2024-01-15T06:58:24;97184.31;;;1.16;100.00
45621;BME280;31345;51.522;10.702;2024-01-15T07:00:53;97182.66;;;1.15;100.00
45621;BME280;31345;51.522;10.702;2024-01-15T07:03:21;97186.44;;;1.09;100.00
45621;BME280;31345;51.522;10.702;2024-01-15T07:05:49;97190.19;;;1.18;100.00
45621;BME280;31345;51.522;10.702;2024-01-15T07:08:16;97190.59;;;1.26;100.00
45621;BME280;31345;51.522;10.702;2024-01-15T07:10:44;97178.28;;;1.31;100.00
45621;BME280;31345;51.522;10.702;2024-01-15T07:13:17;97181.78;;;1.30;100.00
45621;BME280;31345;51.522;10.702;2024-01-15T07:15:44;97179.28;;;1.29;100.00
45621;BME280;31345;51.522;10.702;2024-01-15T07:18:19;97180.09;;;1.15;100.00
45621;BME280;31345;51.522;10.702;2024-01-15T07:20:47;97174.66;;;1.19;100.00
45621;BME280;31345;51.522;10.702;2024-01-15T07:23:15;97184.97;;;1.34;100.00
45621;BME280;31345;51.522;10.702;2024-01-15T07:25:43;97182.66;;;1.29;100.00
45621;BME280;31345;51.522;10.702;2024-01-15T07:28:11;97186.00;;;1.31;100.00
45621;BME280;31345;51.522;10.702;2024-01-15T07:30:43;97193.25;;;1.39;100.00
45621;BME280;31345;51.522;10.702;2024-01-15T07:33:17;97202.00;;;1.36;100.00
45621;BME280;31345;51.522;10.702;2024-01-15T07:35:50;97203.00;;;1.34;100.00
45621;BME280;31345;51.522;10.702;2024-01-15T07:38:17;97204.47;;;1.38;100.00
45621;BME280;31345;51.522;10.702;2024-01-15T07:40:50;97209.16;;;1.31;100.00
45621;BME280;31345;51.522;10.702;2024-01-15T07:43:22;97205.03;;;1.29;100.00
45621;BME280;31345;51.522;10.702;2024-01-15T07:45:52;97214.03;;;1.21;100.00
45621;BME280;31345;51.522;10.702;2024-01-15T07:48:21;97208.97;;;1.20;100.00
45621;BME280;31345;51.522;10.702;2024-01-15T07:50:50;97212.97;;;1.09;100.00
45621;BME280;31345;51.522;10.702;2024-01-15T07:53:22;97203.34;;;1.13;100.00
45621;BME280;31345;51.522;10.702;2024-01-15T07:55:50;97216.22;;;1.13;100.00
45621;BME280;31345;51.522;10.702;2024-01-15T07:58:17;97215.75;;;1.21;100.00
45621;BME280;31345;51.522;10.702;2024-01-15T08:00:45;97211.53;;;1.20;100.00
45621;BME280;31345;51.522;10.702;2024-01-15T08:03:12;97211.06;;;1.28;100.00
45621;BME280;31345;51.522;10.702;2024-01-15T08:05:42;97212.94;;;1.26;100.00
45621;BME280;31345;51.522;10.702;2024-01-15T08:08:15;97214.56;;;1.27;100.00
45621;BME280;31345;51.522;10.702;2024-01-15T08:10:42;97204.81;;;1.32;100.00
45621;BME280;31345;51.522;10.702;2024-01-15T08:13:10;97201.00;;;1.54;100.00
45621;BME280;31345;51.522;10.702;2024-01-15T08:15:43;97197.16;;;1.61;99.37
45621;BME280;31345;51.522;10.702;2024-01-15T08:18:11;97201.28;;;1.64;98.29
45621;BME280;31345;51.522;10.702;2024-01-15T08:20:45;97199.25;;;1.83;97.85
45621;BME280;31345;51.522;10.702;2024-01-15T08:23:14;97199.59;;;1.77;97.11
45621;BME280;31345;51.522;10.702;2024-01-15T08:25:42;97198.34;;;1.55;98.41
45621;BME280;31345;51.522;10.702;2024-01-15T08:28:15;97205.50;;;1.35;100.00
45621;BME280;31345;51.522;10.702;2024-01-15T08:30:45;97202.38;;;1.30;100.00
45621;BME280;31345;51.522;10.702;2024-01-15T08:33:21;97209.97;;;1.32;100.00
45621;BME280;31345;51.522;10.702;2024-01-15T08:35:50;97217.81;;;1.30;100.00
45621;BME280;31345;51.522;10.702;2024-01-15T08:38:23;97218.16;;;1.24;100.00
45621;BME280;31345;51.522;10.702;2024-01-15T08:40:51;97202.84;;;1.37;100.00
45621;BME280;31345;51.522;10.702;2024-01-15T08:43:20;97202.56;;;1.56;100.00
45621;BME280;31345;51.522;10.702;2024-01-15T08:45:52;97193.81;;;1.73;100.00
45621;BME280;31345;51.522;10.702;2024-01-15T08:48:25;97187.25;;;1.97;100.00
45621;BME280;31345;51.522;10.702;2024-01-15T08:51:00;97193.44;;;1.94;99.16
45621;BME280;31345;51.522;10.702;2024-01-15T08:53:28;97188.28;;;1.94;98.93
45621;BME280;31345;51.522;10.702;2024-01-15T08:55:56;97193.06;;;1.71;99.00
45621;BME280;31345;51.522;10.702;2024-01-15T08:58:23;97196.03;;;1.65;99.48
45621;BME280;31345;51.522;10.702;2024-01-15T09:00:51;97206.97;;;1.69;100.00
45621;BME280;31345;51.522;10.702;2024-01-15T09:03:19;97207.09;;;1.53;100.00
45621;BME280;31345;51.522;10.702;2024-01-15T09:05:49;97197.41;;;1.42;100.00
45621;BME280;31345;51.522;10.702;2024-01-15T09:08:23;97192.28;;;1.71;100.00
45621;BME280;31345;51.522;10.702;2024-01-15T09:10:57;97208.63;;;1.84;100.00
45621;BME280;31345;51.522;10.702;2024-01-15T09:13:30;97209.91;;;1.92;100.00
45621;BME280;31345;51.522;10.702;2024-01-15T09:15:58;97209.06;;;1.91;100.00
45621;BME280;31345;51.522;10.702;2024-01-15T09:18:27;97217.00;;;1.73;100.00
45621;BME280;31345;51.522;10.702;2024-01-15T09:21:03;97215.16;;;1.46;100.00
45621;BME280;31345;51.522;10.702;2024-01-15T09:23:32;97219.03;;;1.54;100.00
45621;BME280;31345;51.522;10.702;2024-01-15T09:26:06;97218.66;;;1.89;100.00
45621;BME280;31345;51.522;10.702;2024-01-15T09:28:40;97214.94;;;2.08;100.00
45621;BME280;31345;51.522;10.702;2024-01-15T09:31:07;97212.69;;;2.31;100.00
45621;BME280;31345;51.522;10.702;2024-01-15T09:33:35;97218.91;;;2.13;100.00
45621;BME280;31345;51.522;10.702;2024-01-15T09:36:03;97218.91;;;2.13;100.00
45621;BME280;31345;51.522;10.702;2024-01-15T09:38:37;97217.47;;;1.95;100.00
45621;BME280;31345;51.522;10.702;2024-01-15T09:41:12;97219.75;;;1.99;100.00
45621;BME280;31345;51.522;10.702;2024-01-15T09:43:44;97221.13;;;2.05;100.00
45621;BME280;31345;51.522;10.702;2024-01-15T09:46:13;97220.53;;;2.29;100.00
45621;BME280;31345;51.522;10.702;2024-01-15T09:48:41;97221.81;;;2.36;100.00
45621;BME280;31345;51.522;10.702;2024-01-15T09:51:09;97221.22;;;2.46;100.00
45621;BME280;31345;51.522;10.702;2024-01-15T09:53:43;97228.81;;;2.34;100.00
45621;BME280;31345;51.522;10.702;2024-01-15T09:56:17;97231.88;;;2.26;100.00
45621;BME280;31345;51.522;10.702;2024-01-15T09:58:50;97235.38;;;2.25;100.00
45621;BME280;31345;51.522;10.702;2024-01-15T10:01:24;97230.59;;;2.19;100.00
45621;BME280;31345;51.522;10.702;2024-01-15T10:03:52;97233.66;;;2.11;100.00
45621;BME280;31345;51.522;10.702;2024-01-15T10:06:21;97222.69;;;2.08;100.00
45621;BME280;31345;51.522;10.702;2024-01-15T10:08:51;97220.09;;;2.22;100.00
45621;BME280;31345;51.522;10.702;2024-01-15T10:11:20;97226.94;;;2.51;100.00
45621;BME280;31345;51.522;10.702;2024-01-15T10:13:53;97224.75;;;2.72;100.00
45621;BME280;31345;51.522;10.702;2024-01-15T10:16:23;97221.31;;;3.12;98.47
45621;BME280;31345;51.522;10.702;2024-01-15T10:18:51;97210.19;;;3.38;96.65
45621;BME280;31345;51.522;10.702;2024-01-15T10:21:19;97212.25;;;3.33;95.29
45621;BME280;31345;51.522;10.702;2024-01-15T10:23:53;97221.03;;;2.76;96.62
45621;BME280;31345;51.522;10.702;2024-01-15T10:26:24;97218.56;;;2.75;97.76
45621;BME280;31345;51.522;10.702;2024-01-15T10:28:52;97221.09;;;2.62;99.24
45621;BME280;31345;51.522;10.702;2024-01-15T10:31:19;97219.28;;;2.49;100.00
45621;BME280;31345;51.522;10.702;2024-01-15T10:33:53;97211.22;;;2.41;100.00
45621;BME280;31345;51.522;10.702;2024-01-15T10:36:26;97210.97;;;2.31;100.00
45621;BME280;31345;51.522;10.702;2024-01-15T10:38:57;97204.16;;;2.30;100.00
45621;BME280;31345;51.522;10.702;2024-01-15T10:41:26;97208.31;;;2.46;100.00
45621;BME280;31345;51.522;10.702;2024-01-15T10:43:58;97203.56;;;2.67;100.00
45621;BME280;31345;51.522;10.702;2024-01-15T10:46:31;97206.72;;;2.58;100.00
45621;BME280;31345;51.522;10.702;2024-01-15T10:49:00;97199.75;;;2.73;100.00
45621;BME280;31345;51.522;10.702;2024-01-15T10:51:32;97192.66;;;2.76;99.10
45621;BME280;31345;51.522;10.702;2024-01-15T10:54:07;97197.53;;;2.94;98.37
45621;BME280;31345;51.522;10.702;2024-01-15T10:56:37;97192.69;;;3.02;97.35
45621;BME280;31345;51.522;10.702;2024-01-15T10:59:27;97188.84;;;2.95;97.22
45621;BME280;31345;51.522;10.702;2024-01-15T11:02:13;97184.34;;;2.99;97.13
45621;BME280;31345;51.522;10.702;2024-01-15T11:08:41;97181.66;;;3.00;95.92
45621;BME280;31345;51.522;10.702;2024-01-15T11:15:16;97182.47;;;3.01;97.40
45621;BME280;31345;51.522;10.702;2024-01-15T11:19:01;97182.66;;;2.85;97.86
45621;BME280;31345;51.522;10.702;2024-01-15T11:21:57;97182.97;;;2.25;100.00
45621;BME280;31345;51.522;10.702;2024-01-15T11:24:53;97195.53;;;2.02;100.00
45621;BME280;31345;51.522;10.702;2024-01-15T11:28:25;97195.75;;;1.84;100.00
45621;BME280;31345;51.522;10.702;2024-01-15T11:30:56;97199.53;;;1.64;100.00
45621;BME280;31345;51.522;10.702;2024-01-15T11:37:07;97188.66;;;1.73;100.00
45621;BME280;31345;51.522;10.702;2024-01-15T11:54:08;97184.22;;;3.13;97.54
45621;BME280;31345;51.522;10.702;2024-01-15T12:00:53;97175.44;;;2.90;97.76
45621;BME280;31345;51.522;10.702;2024-01-15T12:08:50;97171.84;;;3.58;96.43
45621;BME280;31345;51.522;10.702;2024-01-15T12:12:24;97159.69;;;3.97;93.35
45621;BME280;31345;51.522;10.702;2024-01-15T12:15:33;97175.69;;;4.02;92.65
45621;BME280;31345;51.522;10.702;2024-01-15T12:18:48;97182.13;;;3.97;93.03
45621;BME280;31345;51.522;10.702;2024-01-15T12:25:42;97155.41;;;4.58;89.36
45621;BME280;31345;51.522;10.702;2024-01-15T12:28:49;97148.56;;;4.57;88.77
45621;BME280;31345;51.522;10.702;2024-01-15T12:31:32;97154.75;;;3.68;90.51
45621;BME280;31345;51.522;10.702;2024-01-15T12:34:22;97157.03;;;2.82;94.40
45621;BME280;31345;51.522;10.702;2024-01-15T12:37:32;97159.44;;;2.44;97.50
45621;BME280;31345;51.522;10.702;2024-01-15T12:40:09;97147.06;;;2.22;100.00
45621;BME280;31345;51.522;10.702;2024-01-15T12:43:27;97168.84;;;2.03;100.00
45621;BME280;31345;51.522;10.702;2024-01-15T12:46:34;97164.28;;;2.21;100.00
45621;BME280;31345;51.522;10.702;2024-01-15T12:49:21;97158.88;;;2.67;100.00
45621;BME280;31345;51.522;10.702;2024-01-15T12:52:11;97159.22;;;2.20;100.00
45621;BME280;31345;51.522;10.702;2024-01-15T12:54:43;97159.44;;;2.44;100.00
45621;BME280;31345;51.522;10.702;2024-01-15T12:57:11;97164.13;;;2.37;98.42
45621;BME280;31345;51.522;10.702;2024-01-15T12:59:43;97170.97;;;2.79;98.16
45621;BME280;31345;51.522;10.702;2024-01-15T13:02:17;97168.59;;;2.76;96.45
45621;BME280;31345;51.522;10.702;2024-01-15T13:04:50;97166.97;;;3.01;95.32
45621;BME280;31345;51.522;10.702;2024-01-15T13:07:22;97164.31;;;3.28;94.47
45621;BME280;31345;51.522;10.702;2024-01-15T13:09:55;97166.91;;;3.28;93.35
45621;BME280;31345;51.522;10.702;2024-01-15T13:12:27;97162.22;;;2.95;94.20
45621;BME280;31345;51.522;10.702;2024-01-15T13:15:00;97167.03;;;2.73;95.13
45621;BME280;31345;51.522;10.702;2024-01-15T13:17:36;97164.59;;;2.85;95.06
45621;BME280;31345;51.522;10.702;2024-01-15T13:20:09;97152.41;;;2.87;95.84
45621;BME280;31345;51.522;10.702;2024-01-15T13:22:37;97156.09;;;2.83;95.43
45621;BME280;31345;51.522;10.702;2024-01-15T13:25:06;97155.91;;;2.45;96.18
45621;BME280;31345;51.522;10.702;2024-01-15T13:27:40;97157.75;;;2.16;97.49
45621;BME280;31345;51.522;10.702;2024-01-15T13:30:10;97169.81;;;2.15;98.40
45621;BME280;31345;51.522;10.702;2024-01-15T13:32:44;97178.13;;;2.06;98.26
45621;BME280;31345;51.522;10.702;2024-01-15T13:35:18;97181.09;;;1.99;98.42
45621;BME280;31345;51.522;10.702;2024-01-15T13:37:50;97171.69;;;2.13;97.90
45621;BME280;31345;51.522;10.702;2024-01-15T13:40:19;97181.50;;;2.21;98.46
45621;BME280;31345;51.522;10.702;2024-01-15T13:42:51;97173.34;;;1.99;99.49
45621;BME280;31345;51.522;10.702;2024-01-15T13:45:25;97180.91;;;2.03;99.56
45621;BME280;31345;51.522;10.702;2024-01-15T13:47:59;97181.16;;;2.12;99.56
45621;BME280;31345;51.522;10.702;2024-01-15T13:50:32;97174.25;;;2.13;98.37
45621;BME280;31345;51.522;10.702;2024-01-15T13:53:04;97178.75;;;2.24;98.35
45621;BME280;31345;51.522;10.702;2024-01-15T13:55:37;97173.25;;;2.16;97.34
45621;BME280;31345;51.522;10.702;2024-01-15T13:58:04;97187.06;;;2.14;96.78
45621;BME280;31345;51.522;10.702;2024-01-15T14:00:32;97176.94;;;2.11;96.53
45621;BME280;31345;51.522;10.702;2024-01-15T14:03:01;97181.91;;;2.00;97.73